Time;durP1;ratioP1;P1;durP2;ratioP2;P2;SDS_P1;SDS_P2;PMS_P1;PMS_P2;Temp;Humidity;BMP_temperature;BMP_pressure;BME280_temperature;BME280_humidity;BME280_pressure;Samples;Min_cycle;Max_cycle;Signal;HPM_P1;HPM_P2
2022/07/14 00:01:31;;;;;;;8.47;2.10;;;15.90;99.90;;;;;;5048053;28;20768;-56
2022/07/14 00:04:01;;;;;;;11.00;2.40;;;15.90;99.90;;;;;;5045647;28;20216;-55
2022/07/14 00:06:34;;;;;;;8.60;2.07;;;15.90;99.90;;;;;;5045093;28;20243;-55
2022/07/14 00:09:02;;;;;;;9.80;2.40;;;15.90;99.90;;;;;;5046705;28;20232;-55
2022/07/14 00:11:31;;;;;;;6.17;2.03;;;15.80;99.90;;;;;;5046558;28;20231;-55
2022/07/14 00:13:59;;;;;;;9.97;2.20;;;15.80;99.90;;;;;;5045195;28;20220;-55
2022/07/14 00:16:31;;;;;;;8.03;2.00;;;15.80;99.90;;;;;;5047996;28;20358;-56
2022/07/14 00:19:01;;;;;;;6.47;2.07;;;15.80;99.90;;;;;;5044613;28;20227;-56
2022/07/14 00:21:29;;;;;;;8.70;1.90;;;15.70;99.90;;;;;;5045474;28;20262;-54
2022/07/14 00:23:57;;;;;;;6.73;1.90;;;15.70;99.90;;;;;;5045734;28;20220;-55
2022/07/14 00:26:26;;;;;;;10.17;2.50;;;15.70;99.90;;;;;;5044496;28;20243;-55
2022/07/14 00:29:00;;;;;;;5.93;2.33;;;15.60;99.90;;;;;;5045573;28;20239;-55
2022/07/14 00:31:28;;;;;;;8.17;2.10;;;15.70;99.90;;;;;;5044283;28;21079;-54
2022/07/14 00:34:04;;;;;;;9.30;2.43;;;15.60;99.90;;;;;;5046031;28;20219;-55
2022/07/14 00:36:38;;;;;;;7.37;1.80;;;15.60;99.90;;;;;;5045642;28;20227;-55
2022/07/14 00:39:06;;;;;;;6.77;2.13;;;15.50;99.90;;;;;;5043951;28;20216;-55
2022/07/14 00:41:35;;;;;;;6.70;2.20;;;15.50;99.90;;;;;;5044371;28;20612;-55
2022/07/14 00:44:06;;;;;;;6.07;2.07;;;15.50;99.90;;;;;;5046267;28;20228;-55
2022/07/14 00:46:38;;;;;;;6.73;1.80;;;15.60;99.90;;;;;;5043676;28;20228;-55
2022/07/14 00:49:34;;;;;;;7.70;2.00;;;15.60;99.90;;;;;;5044535;28;20247;-55
2022/07/14 00:52:06;;;;;;;6.83;1.80;;;15.50;99.90;;;;;;5044882;28;20230;-56
2022/07/14 00:54:38;;;;;;;8.90;1.97;;;15.50;99.90;;;;;;5043843;28;20362;-55
2022/07/14 00:57:09;;;;;;;9.50;2.10;;;15.50;99.90;;;;;;5045204;28;20234;-55
2022/07/14 00:59:38;;;;;;;6.90;2.00;;;15.50;99.90;;;;;;5043856;28;20234;-54
2022/07/14 01:02:09;;;;;;;4.37;1.57;;;15.40;99.90;;;;;;5044207;28;20239;-54
2022/07/14 01:04:39;;;;;;;5.17;1.70;;;15.40;99.90;;;;;;5042513;28;20340;-55
2022/07/14 01:07:12;;;;;;;7.53;2.53;;;15.40;99.90;;;;;;5044182;28;20697;-55
2022/07/14 01:09:41;;;;;;;6.60;1.80;;;15.40;99.90;;;;;;5045535;28;20228;-55
2022/07/14 01:12:12;;;;;;;7.27;1.90;;;15.40;99.90;;;;;;5044402;28;20340;-55
2022/07/14 01:14:41;;;;;;;7.27;1.77;;;15.40;99.90;;;;;;5043281;28;20294;-55
2022/07/14 01:17:10;;;;;;;11.27;2.10;;;15.40;99.90;;;;;;5044964;28;20228;-56
2022/07/14 01:19:41;;;;;;;8.23;2.27;;;15.30;99.90;;;;;;5044065;28;20238;-55
2022/07/14 01:22:12;;;;;;;7.00;2.10;;;15.30;99.90;;;;;;5042938;28;20334;-56
2022/07/14 01:24:44;;;;;;;5.63;1.70;;;15.30;99.90;;;;;;5043566;28;20223;-55
2022/07/14 01:27:12;;;;;;;10.70;2.10;;;15.20;99.90;;;;;;5042909;28;20235;-55
2022/07/14 01:29:44;;;;;;;6.07;1.87;;;15.20;99.90;;;;;;5041529;28;20243;-55
2022/07/14 01:32:13;;;;;;;6.73;1.53;;;15.10;99.90;;;;;;5043606;28;20232;-55
2022/07/14 01:34:42;;;;;;;7.20;1.83;;;15.10;99.90;;;;;;5042852;28;20265;-55
2022/07/14 01:37:14;;;;;;;6.17;2.27;;;15.10;99.90;;;;;;5054882;28;20223;-55
2022/07/14 01:39:44;;;;;;;5.43;1.80;;;15.10;99.90;;;;;;5052788;28;20227;-55
2022/07/14 01:42:12;;;;;;;5.67;1.70;;;15.10;99.90;;;;;;5052900;28;20254;-55
2022/07/14 01:44:48;;;;;;;6.43;2.30;;;15.10;99.90;;;;;;5067594;28;20234;-55
2022/07/14 01:47:17;;;;;;;5.93;2.00;;;15.10;99.90;;;;;;5051371;28;20248;-55
2022/07/14 01:49:51;;;;;;;7.23;1.83;;;15.10;99.90;;;;;;5054904;28;20228;-55
2022/07/14 01:52:21;;;;;;;7.27;2.03;;;15.10;99.90;;;;;;5053201;28;20220;-54
2022/07/14 01:54:59;;;;;;;5.70;2.13;;;15.00;99.90;;;;;;5052857;28;20223;-55
2022/07/14 01:57:27;;;;;;;5.77;1.63;;;15.00;99.90;;;;;;5052951;28;20224;-58
2022/07/14 01:59:59;;;;;;;7.40;2.10;;;15.00;99.90;;;;;;5067068;28;20258;-65
2022/07/14 02:02:28;;;;;;;5.50;1.73;;;15.00;99.90;;;;;;5067458;28;20267;-68
2022/07/14 02:04:57;;;;;;;6.27;1.67;;;15.00;99.90;;;;;;5068312;28;20234;-67
2022/07/14 02:07:27;;;;;;;5.37;1.90;;;14.90;99.90;;;;;;5066099;28;20227;-62
2022/07/14 02:13:17;;;;;;;7.17;1.70;;;14.90;99.90;;;;;;5066215;28;20291;-65
2022/07/14 02:15:45;;;;;;;4.77;1.67;;;14.90;99.90;;;;;;5063084;28;20230;-59
2022/07/14 02:18:15;;;;;;;7.20;1.90;;;14.90;99.90;;;;;;5043088;28;20233;-72
2022/07/14 02:20:48;;;;;;;8.30;1.90;;;14.90;99.90;;;;;;5063083;28;20216;-63
2022/07/14 02:23:17;;;;;;;7.60;1.73;;;14.90;99.90;;;;;;5062435;28;20274;-67
2022/07/14 02:25:52;;;;;;;7.00;2.10;;;14.90;99.90;;;;;;5064338;28;20238;-62
2022/07/14 02:28:20;;;;;;;8.00;2.23;;;14.90;99.90;;;;;;5063237;28;20322;-61
2022/07/14 02:30:52;;;;;;;4.43;1.70;;;14.90;99.90;;;;;;5052418;28;20244;-55
2022/07/14 02:33:26;;;;;;;5.87;1.50;;;14.90;99.90;;;;;;5052329;28;20228;-55
2022/07/14 02:35:54;;;;;;;8.67;2.13;;;14.90;99.90;;;;;;5050773;28;20220;-55
2022/07/14 02:38:27;;;;;;;5.07;1.50;;;14.90;99.90;;;;;;5057654;28;20307;-55
2022/07/14 02:40:57;;;;;;;5.20;1.40;;;14.80;99.90;;;;;;5054123;28;20306;-55
2022/07/14 02:43:26;;;;;;;6.03;1.80;;;14.80;99.90;;;;;;5051892;28;20269;-55
2022/07/14 02:45:55;;;;;;;5.27;1.70;;;14.80;99.90;;;;;;5052530;28;20273;-55
2022/07/14 02:48:31;;;;;;;7.20;1.80;;;14.70;99.90;;;;;;5050536;28;20235;-54
2022/07/14 02:51:00;;;;;;;7.10;2.20;;;14.80;99.90;;;;;;5051780;28;20232;-55
2022/07/14 02:53:34;;;;;;;4.83;1.83;;;14.80;99.90;;;;;;5051888;28;20250;-55
2022/07/14 02:56:09;;;;;;;6.70;1.50;;;14.80;99.90;;;;;;5052351;28;20695;-54
2022/07/14 02:58:39;;;;;;;7.00;1.80;;;14.80;99.90;;;;;;5045377;28;20277;-55
2022/07/14 03:01:11;;;;;;;6.23;1.90;;;14.90;99.90;;;;;;5050495;28;20236;-55
2022/07/14 03:03:46;;;;;;;5.13;1.70;;;14.80;99.90;;;;;;5050259;28;20285;-55
2022/07/14 03:06:16;;;;;;;7.17;1.70;;;14.70;99.90;;;;;;5050813;28;20664;-55
2022/07/14 03:08:53;;;;;;;3.90;1.40;;;14.60;99.90;;;;;;5067423;28;20312;-55
2022/07/14 03:11:22;;;;;;;6.33;1.60;;;14.60;99.90;;;;;;5053276;28;20234;-55
2022/07/14 03:13:50;;;;;;;4.53;1.80;;;14.60;99.90;;;;;;5054173;28;20220;-55
2022/07/14 03:16:22;;;;;;;5.90;1.90;;;14.60;99.90;;;;;;5054483;28;20224;-55
2022/07/14 03:18:53;;;;;;;4.93;1.63;;;14.50;99.90;;;;;;5054371;28;20338;-55
2022/07/14 03:21:23;;;;;;;7.97;1.83;;;14.50;99.90;;;;;;5053349;28;20302;-55
2022/07/14 03:24:00;;;;;;;2.97;1.40;;;14.50;99.90;;;;;;5053935;28;20238;-55
2022/07/14 03:26:33;;;;;;;6.57;2.33;;;14.50;99.90;;;;;;5054133;28;20315;-55
2022/07/14 03:29:05;;;;;;;6.47;1.53;;;14.40;99.90;;;;;;5070658;28;20224;-56
2022/07/14 03:31:34;;;;;;;7.23;2.00;;;14.50;99.90;;;;;;5053393;28;20322;-55
2022/07/14 03:34:12;;;;;;;6.17;1.80;;;14.50;99.90;;;;;;5053793;28;20226;-55
2022/07/14 03:36:45;;;;;;;6.67;2.00;;;14.50;99.90;;;;;;5053859;28;20238;-55
2022/07/14 03:39:50;;;;;;;5.77;1.40;;;14.40;99.90;;;;;;5055192;28;20330;-55
2022/07/14 03:42:25;;;;;;;6.13;1.97;;;14.50;99.90;;;;;;5055824;28;20228;-54
2022/07/14 03:44:55;;;;;;;8.57;2.00;;;14.50;99.90;;;;;;5053806;28;20643;-55
2022/07/14 03:47:27;;;;;;;3.70;1.80;;;14.50;99.90;;;;;;5052227;28;20697;-55
2022/07/14 03:49:55;;;;;;;3.97;1.40;;;14.50;99.90;;;;;;5053603;28;20285;-55
2022/07/14 03:52:24;;;;;;;5.53;1.73;;;14.60;99.90;;;;;;5055141;28;20224;-55
2022/07/14 03:54:54;;;;;;;4.37;1.63;;;14.60;99.90;;;;;;5053592;28;20264;-55
2022/07/14 03:57:54;;;;;;;4.30;1.67;;;14.70;99.90;;;;;;5054837;28;20305;-55
2022/07/14 04:00:26;;;;;;;6.80;1.87;;;14.80;99.90;;;;;;5052964;28;20215;-55
2022/07/14 04:02:55;;;;;;;4.30;1.70;;;14.80;99.90;;;;;;5052307;28;20220;-55
2022/07/14 04:05:27;;;;;;;7.33;2.10;;;14.90;99.90;;;;;;5052755;28;20234;-56
2022/07/14 04:08:01;;;;;;;6.50;1.90;;;15.00;99.90;;;;;;5053293;28;20238;-55
2022/07/14 04:10:39;;;;;;;6.10;1.93;;;15.00;99.90;;;;;;5053093;28;20604;-55
2022/07/14 04:13:09;;;;;;;4.20;1.60;;;15.10;99.90;;;;;;5054218;28;20255;-55
2022/07/14 04:15:39;;;;;;;6.67;1.67;;;15.20;99.90;;;;;;5051748;28;20262;-55
2022/07/14 04:18:10;;;;;;;4.77;1.97;;;15.20;99.90;;;;;;5054669;28;20583;-55
2022/07/14 04:20:40;;;;;;;4.80;1.80;;;15.10;99.90;;;;;;5054414;28;20216;-55
2022/07/14 04:23:08;;;;;;;3.13;1.40;;;15.10;99.90;;;;;;5054378;28;20243;-55
2022/07/14 04:25:38;;;;;;;7.93;1.90;;;15.10;99.90;;;;;;5052334;28;20274;-55
2022/07/14 04:28:08;;;;;;;7.30;1.70;;;15.10;99.90;;;;;;5053021;28;20278;-55
2022/07/14 04:30:36;;;;;;;6.70;1.63;;;15.10;99.90;;;;;;5052103;28;20232;-55
2022/07/14 04:33:13;;;;;;;4.13;1.40;;;15.10;99.90;;;;;;5052863;28;20232;-55
2022/07/14 04:35:45;;;;;;;6.27;2.07;;;15.10;99.90;;;;;;5053962;28;20235;-56
2022/07/14 04:38:13;;;;;;;8.97;2.27;;;15.10;99.90;;;;;;5053972;28;20710;-56
2022/07/14 04:40:51;;;;;;;6.53;1.97;;;15.20;99.90;;;;;;5052547;28;20220;-55
2022/07/14 04:43:28;;;;;;;4.67;1.60;;;15.10;99.90;;;;;;5052466;28;20256;-55
2022/07/14 04:46:01;;;;;;;5.93;1.87;;;15.30;99.90;;;;;;5052496;28;20282;-55
2022/07/14 04:54:10;;;;;;;4.20;1.43;;;15.20;99.90;;;;;;5044152;28;20228;-55
2022/07/14 04:57:13;;;;;;;4.93;1.77;;;15.20;99.90;;;;;;5045761;28;20235;-56
2022/07/14 04:59:45;;;;;;;4.27;1.60;;;15.30;99.90;;;;;;5068944;28;20223;-55
2022/07/14 05:02:16;;;;;;;3.80;1.37;;;15.50;99.90;;;;;;5052167;28;20699;-55
2022/07/14 05:04:45;;;;;;;5.30;1.50;;;15.80;99.90;;;;;;5052416;28;20223;-55
2022/07/14 05:07:18;;;;;;;4.23;1.50;;;15.90;99.90;;;;;;5068485;28;20243;-56
2022/07/14 05:09:55;;;;;;;4.20;1.40;;;15.90;99.90;;;;;;5068838;28;20682;-55
2022/07/14 05:12:26;;;;;;;6.70;1.50;;;15.90;99.90;;;;;;5053112;28;20269;-55
2022/07/14 05:14:56;;;;;;;5.03;1.73;;;16.10;99.90;;;;;;5051215;28;20319;-56
2022/07/14 05:17:28;;;;;;;4.13;1.80;;;16.30;99.90;;;;;;5051669;28;20232;-56
2022/07/14 05:20:00;;;;;;;2.57;1.00;;;16.40;99.90;;;;;;5051991;28;20236;-56
2022/07/14 05:22:36;;;;;;;5.83;1.67;;;16.60;99.90;;;;;;5051816;28;20255;-56
2022/07/14 05:25:08;;;;;;;3.80;1.20;;;16.80;99.90;;;;;;5052039;28;20223;-56
2022/07/14 05:27:39;;;;;;;4.13;1.53;;;16.90;99.90;;;;;;5051385;28;20254;-56
2022/07/14 05:30:20;;;;;;;4.10;1.30;;;17.10;99.90;;;;;;5050937;28;20587;-56
2022/07/14 05:32:53;;;;;;;5.33;1.50;;;17.20;99.90;;;;;;5077174;28;20258;-56
2022/07/14 05:35:22;;;;;;;5.43;1.40;;;17.40;99.90;;;;;;5051018;28;20235;-56
2022/07/14 05:37:51;;;;;;;3.90;1.40;;;17.60;99.90;;;;;;5048338;28;20225;-56
2022/07/14 05:40:19;;;;;;;5.60;1.20;;;17.90;99.90;;;;;;5051397;28;20265;-57
2022/07/14 05:42:56;;;;;;;6.07;1.40;;;18.10;99.90;;;;;;5052451;28;20231;-57
2022/07/14 05:45:28;;;;;;;5.03;1.40;;;18.20;99.90;;;;;;5052202;28;20230;-57
2022/07/14 05:47:56;;;;;;;5.63;1.40;;;18.30;99.90;;;;;;5050400;28;20240;-56
2022/07/14 05:50:52;;;;;;;3.97;1.07;;;18.40;99.90;;;;;;5044789;28;20259;-56
2022/07/14 05:53:30;;;;;;;3.03;0.97;;;18.70;99.90;;;;;;5051755;28;20619;-56
2022/07/14 05:55:58;;;;;;;4.43;1.17;;;18.70;99.90;;;;;;5046852;28;20216;-57
2022/07/14 05:58:58;;;;;;;5.20;1.20;;;18.80;99.90;;;;;;5050657;28;20696;-56
2022/07/14 06:01:47;;;;;;;4.30;1.33;;;18.90;99.90;;;;;;5053676;28;20238;-58
2022/07/14 06:04:19;;;;;;;7.40;1.13;;;19.00;99.90;;;;;;5056335;28;20223;-57
2022/07/14 06:06:47;;;;;;;3.33;1.10;;;19.20;99.90;;;;;;5050516;28;20271;-57
2022/07/14 06:09:17;;;;;;;3.90;1.10;;;19.40;99.90;;;;;;5053020;28;20229;-57
2022/07/14 06:11:46;;;;;;;5.00;1.27;;;19.60;99.90;;;;;;5052910;28;20277;-57
2022/07/14 06:14:21;;;;;;;3.60;1.13;;;19.80;99.90;;;;;;5054595;28;20619;-57
2022/07/14 06:16:56;;;;;;;4.80;1.10;;;20.00;99.90;;;;;;5054087;28;20229;-57
2022/07/14 06:19:24;;;;;;;3.53;1.30;;;20.20;99.90;;;;;;5048391;28;20230;-57
2022/07/14 06:21:54;;;;;;;3.40;1.10;;;20.30;99.90;;;;;;5054868;28;20736;-57
2022/07/14 06:24:23;;;;;;;4.47;1.33;;;20.50;99.90;;;;;;5050630;28;20222;-57
2022/07/14 06:26:55;;;;;;;5.77;1.10;;;20.70;99.90;;;;;;5053252;28;20631;-57
2022/07/14 06:29:25;;;;;;;6.60;1.20;;;20.80;99.90;;;;;;5054296;28;20233;-56
2022/07/14 06:31:56;;;;;;;3.90;0.87;;;20.80;99.90;;;;;;5055685;28;20703;-56
2022/07/14 06:34:25;;;;;;;5.00;0.90;;;21.00;99.90;;;;;;5054040;28;20226;-57
2022/07/14 06:37:10;;;;;;;5.87;1.17;;;21.10;99.90;;;;;;5050310;28;20235;-57
2022/07/14 06:39:39;;;;;;;5.37;1.07;;;21.30;99.90;;;;;;5048796;28;20696;-56
2022/07/14 06:42:07;;;;;;;4.13;1.00;;;21.50;99.90;;;;;;5062481;28;20218;-57
2022/07/14 06:44:43;;;;;;;2.67;0.80;;;21.40;99.90;;;;;;5050379;28;20230;-57
2022/07/14 06:47:12;;;;;;;3.60;0.90;;;21.50;99.90;;;;;;5053260;28;20238;-57
2022/07/14 06:49:44;;;;;;;3.63;0.80;;;21.60;99.90;;;;;;5059269;28;20230;-57
2022/07/14 06:52:12;;;;;;;4.30;1.20;;;21.90;99.90;;;;;;5054019;28;20263;-59
2022/07/14 06:54:41;;;;;;;2.70;0.67;;;22.00;99.90;;;;;;5054865;28;20322;-57
2022/07/14 06:57:09;;;;;;;4.47;1.10;;;22.30;99.90;;;;;;5056362;28;20245;-57
2022/07/14 06:59:37;;;;;;;1.73;0.70;;;22.50;99.90;;;;;;5051387;28;20553;-57
2022/07/14 07:03:11;;;;;;;4.27;0.73;;;21.90;99.90;;;;;;5059303;28;20237;-56
2022/07/14 07:08:28;;;;;;;6.10;1.13;;;21.00;99.90;;;;;;5054420;28;20679;-56
2022/07/14 07:10:57;;;;;;;2.83;0.80;;;21.30;99.90;;;;;;5060711;28;20251;-57
2022/07/14 07:13:31;;;;;;;4.17;1.07;;;21.70;99.90;;;;;;5054067;28;20269;-57
2022/07/14 07:16:04;;;;;;;3.27;0.80;;;21.50;99.90;;;;;;5059713;28;20257;-57
2022/07/14 07:18:34;;;;;;;2.97;0.70;;;21.40;99.90;;;;;;5053780;28;20711;-57
2022/07/14 07:21:03;;;;;;;2.47;0.70;;;21.70;99.90;;;;;;5056145;28;20752;-57
2022/07/14 07:23:31;;;;;;;2.93;0.80;;;22.20;99.90;;;;;;5061779;28;20637;-57
2022/07/14 07:26:00;;;;;;;4.10;0.80;;;22.60;99.90;;;;;;5056808;28;20230;-57
2022/07/14 07:28:28;;;;;;;2.10;0.80;;;23.00;99.90;;;;;;5055722;28;20227;-58
2022/07/14 07:30:56;;;;;;;3.40;0.70;;;22.60;99.90;;;;;;5062222;28;20231;-57
2022/07/14 07:33:24;;;;;;;2.87;0.70;;;22.10;99.90;;;;;;5056651;28;20683;-57
2022/07/14 07:35:54;;;;;;;4.73;1.00;;;22.40;99.90;;;;;;5054414;28;20235;-58
2022/07/14 07:38:23;;;;;;;3.77;0.80;;;22.80;99.90;;;;;;5056736;28;20236;-57
2022/07/14 07:40:53;;;;;;;1.83;0.70;;;23.10;99.90;;;;;;5067637;28;20662;-57
2022/07/14 07:43:25;;;;;;;2.20;0.60;;;23.30;99.90;;;;;;5054797;28;20262;-57
2022/07/14 07:45:53;;;;;;;2.10;0.63;;;23.20;99.90;;;;;;5054399;28;20213;-58
2022/07/14 07:48:22;;;;;;;1.90;1.03;;;23.60;99.90;;;;;;5056123;28;20639;-59
2022/07/14 07:50:50;;;;;;;2.70;0.83;;;23.80;99.90;;;;;;5054152;28;20262;-58
2022/07/14 07:53:19;;;;;;;4.07;1.10;;;24.00;99.90;;;;;;5062245;28;20224;-59
2022/07/14 07:55:48;;;;;;;2.97;0.70;;;24.10;99.90;;;;;;5056368;28;20584;-58
2022/07/14 07:58:16;;;;;;;3.40;0.90;;;24.30;99.90;;;;;;5056210;28;20227;-58
2022/07/14 08:00:44;;;;;;;2.30;0.60;;;24.80;99.90;;;;;;5058045;28;20232;-58
2022/07/14 08:03:12;;;;;;;4.20;1.03;;;24.90;99.90;;;;;;5066877;28;20234;-58
2022/07/14 08:05:42;;;;;;;3.07;0.70;;;24.30;99.90;;;;;;5059669;28;20752;-58
2022/07/14 08:08:16;;;;;;;1.60;0.53;;;24.10;99.90;;;;;;5055229;28;20219;-58
2022/07/14 08:10:45;;;;;;;3.43;0.70;;;23.80;99.90;;;;;;5054909;28;20702;-58
2022/07/14 08:13:15;;;;;;;6.03;0.70;;;23.60;99.90;;;;;;5049989;28;20286;-58
2022/07/14 08:15:43;;;;;;;2.97;0.93;;;23.90;99.90;;;;;;5053941;28;20229;-58
2022/07/14 08:18:12;;;;;;;3.23;0.83;;;24.20;99.90;;;;;;5051193;28;20217;-58
2022/07/14 08:20:40;;;;;;;5.20;0.90;;;24.60;99.90;;;;;;5053809;28;20225;-58
2022/07/14 08:23:09;;;;;;;3.07;0.73;;;24.40;99.90;;;;;;5053194;28;20311;-58
2022/07/14 08:25:37;;;;;;;2.83;0.63;;;23.90;99.90;;;;;;5059876;28;20246;-58
2022/07/14 08:28:06;;;;;;;3.63;0.70;;;23.80;99.90;;;;;;5059912;28;20220;-57
2022/07/14 08:30:35;;;;;;;2.03;0.70;;;24.00;99.90;;;;;;5052801;28;20312;-57
2022/07/14 08:33:03;;;;;;;3.57;0.80;;;24.20;99.90;;;;;;5056135;28;20349;-58
2022/07/14 08:35:34;;;;;;;2.17;0.80;;;24.20;99.90;;;;;;5054206;28;20237;-57
2022/07/14 08:38:02;;;;;;;3.57;0.90;;;23.80;99.90;;;;;;5059731;28;20229;-58
2022/07/14 08:40:38;;;;;;;1.93;0.60;;;22.90;99.90;;;;;;5055201;28;20223;-57
2022/07/14 08:43:11;;;;;;;4.47;0.80;;;22.80;99.90;;;;;;5055270;28;20231;-57
2022/07/14 08:45:42;;;;;;;3.27;0.87;;;23.20;99.90;;;;;;5051313;28;20233;-57
2022/07/14 08:48:11;;;;;;;4.30;0.83;;;24.20;99.90;;;;;;5067189;28;20236;-58
2022/07/14 08:51:39;;;;;;;2.43;0.80;;;24.90;99.90;;;;;;5051594;28;20339;-58
2022/07/14 08:54:09;;;;;;;3.13;0.57;;;25.40;99.90;;;;;;5065569;28;20283;-58
2022/07/14 08:56:43;;;;;;;4.03;0.80;;;25.40;99.90;;;;;;5064038;28;20230;-57
2022/07/14 08:59:12;;;;;;;2.27;0.83;;;25.30;99.90;;;;;;5059075;28;20343;-58
2022/07/14 09:01:45;;;;;;;4.77;1.10;;;25.50;99.90;;;;;;5049688;28;20585;-59
2022/07/14 09:04:14;;;;;;;4.90;0.87;;;25.40;99.90;;;;;;5053052;28;20230;-57
2022/07/14 09:06:52;;;;;;;3.27;0.80;;;25.80;99.90;;;;;;5054994;28;20236;-58
2022/07/14 09:10:02;;;;;;;2.43;0.80;;;25.80;99.90;;;;;;5056950;28;20253;-58
2022/07/14 09:12:31;;;;;;;4.73;0.90;;;25.50;99.90;;;;;;5059720;28;20225;-57
2022/07/14 09:17:51;;;;;;;3.77;0.70;;;24.60;99.90;;;;;;5047096;28;20694;-58
2022/07/14 09:20:20;;;;;;;3.30;0.60;;;24.20;99.90;;;;;;5056922;28;20220;-57
2022/07/14 09:22:49;;;;;;;3.67;0.77;;;24.30;99.90;;;;;;5058202;28;20226;-57
2022/07/14 09:25:19;;;;;;;5.97;1.10;;;24.80;99.90;;;;;;5056881;28;20226;-57
2022/07/14 09:27:48;;;;;;;3.70;0.67;;;25.30;99.90;;;;;;5051221;28;20226;-58
2022/07/14 09:30:22;;;;;;;3.13;0.80;;;25.40;99.90;;;;;;5052914;28;20244;-58
2022/07/14 09:32:52;;;;;;;2.80;0.90;;;25.10;99.90;;;;;;5052388;28;20649;-58
2022/07/14 09:35:22;;;;;;;2.67;0.77;;;25.10;99.90;;;;;;5052230;28;20226;-58
2022/07/14 09:37:53;;;;;;;2.50;0.80;;;25.00;99.90;;;;;;5054473;28;20638;-57
2022/07/14 09:40:25;;;;;;;4.07;0.70;;;24.70;99.90;;;;;;5053326;28;20639;-57
2022/07/14 09:43:02;;;;;;;4.17;0.90;;;24.60;99.90;;;;;;5054992;28;20225;-58
2022/07/14 09:45:41;;;;;;;3.73;0.80;;;24.20;99.90;;;;;;5052181;28;20311;-57
2022/07/14 09:48:19;;;;;;;3.13;0.90;;;24.20;99.90;;;;;;5058702;28;20271;-58
2022/07/14 09:50:49;;;;;;;4.13;0.90;;;23.80;99.90;;;;;;5052110;28;20313;-58
2022/07/14 09:53:24;;;;;;;4.40;0.73;;;23.80;99.90;;;;;;5053669;28;20286;-58
2022/07/14 09:56:20;;;;;;;3.33;1.40;;;23.80;99.90;;;;;;5052241;28;20227;-57
2022/07/14 09:58:51;;;;;;;3.00;0.77;;;23.70;99.90;;;;;;5051253;28;20226;-57
2022/07/14 10:01:23;;;;;;;3.60;0.90;;;23.50;99.90;;;;;;5052198;28;20237;-59
2022/07/14 10:03:55;;;;;;;3.27;0.80;;;23.10;99.90;;;;;;5050841;28;20229;-58
2022/07/14 10:06:24;;;;;;;2.50;0.70;;;22.90;99.90;;;;;;5058360;28;20680;-57
2022/07/14 10:09:05;;;;;;;4.33;0.83;;;23.10;99.90;;;;;;5055271;28;20223;-58
2022/07/14 10:11:35;;;;;;;2.80;0.80;;;23.40;99.90;;;;;;5052128;28;20309;-58
2022/07/14 10:14:05;;;;;;;4.97;0.80;;;23.20;99.90;;;;;;5060074;28;20224;-58
2022/07/14 10:16:36;;;;;;;2.70;0.80;;;23.20;99.90;;;;;;5065462;28;20237;-57
2022/07/14 10:19:06;;;;;;;2.90;0.80;;;23.40;99.90;;;;;;5057472;28;20231;-58
2022/07/14 10:21:43;;;;;;;1.83;0.67;;;23.30;99.90;;;;;;5050847;28;20227;-57
2022/07/14 10:24:17;;;;;;;2.67;0.90;;;23.50;99.90;;;;;;5061814;28;20225;-58
2022/07/14 10:26:46;;;;;;;2.57;0.63;;;23.50;99.90;;;;;;5055856;28;20219;-58
2022/07/14 10:29:16;;;;;;;3.00;0.73;;;23.80;99.90;;;;;;5056457;28;20231;-57
2022/07/14 10:32:03;;;;;;;3.03;0.80;;;23.80;99.90;;;;;;5059002;28;20565;-58
2022/07/14 10:34:39;;;;;;;2.20;0.63;;;24.00;99.90;;;;;;5055822;28;20237;-57
2022/07/14 10:37:15;;;;;;;4.73;0.80;;;23.90;99.90;;;;;;5059601;28;20577;-58
2022/07/14 10:39:55;;;;;;;2.70;0.90;;;24.10;99.90;;;;;;5057578;28;20559;-57
2022/07/14 10:42:33;;;;;;;2.80;1.00;;;24.10;99.90;;;;;;5057173;28;20220;-58
2022/07/14 10:45:02;;;;;;;2.83;1.00;;;23.70;99.90;;;;;;5055832;28;20706;-58
2022/07/14 10:47:48;;;;;;;3.67;0.93;;;24.00;99.90;;;;;;5059876;28;20246;-58
2022/07/14 10:50:20;;;;;;;3.70;0.73;;;24.20;99.90;;;;;;5055656;28;20228;-57
2022/07/14 10:53:00;;;;;;;5.10;1.27;;;24.40;99.90;;;;;;5053582;28;20229;-57
2022/07/14 10:55:40;;;;;;;3.30;0.83;;;24.20;99.90;;;;;;5050649;28;20230;-58
2022/07/14 10:58:31;;;;;;;4.27;1.03;;;24.40;99.90;;;;;;5056993;28;20244;-58
2022/07/14 11:01:00;;;;;;;3.20;0.90;;;23.80;99.90;;;;;;5058208;28;20237;-57
2022/07/14 11:03:47;;;;;;;3.67;0.60;;;23.60;99.90;;;;;;5055318;28;20221;-58
2022/07/14 11:06:21;;;;;;;3.10;0.83;;;23.50;99.90;;;;;;5052786;28;20735;-57
2022/07/14 11:09:39;;;;;;;2.40;0.57;;;23.40;99.90;;;;;;5062108;28;20233;-57
2022/07/14 11:12:17;;;;;;;1.87;0.70;;;23.70;99.90;;;;;;5055229;28;20227;-57
2022/07/14 11:14:46;;;;;;;3.20;0.67;;;23.80;99.90;;;;;;5061015;28;20228;-57
2022/07/14 11:17:36;;;;;;;2.00;0.80;;;23.80;99.90;;;;;;5055008;28;20225;-58
2022/07/14 11:20:10;;;;;;;1.67;0.60;;;24.30;99.90;;;;;;5049585;28;20626;-57
2022/07/14 11:22:40;;;;;;;1.80;0.50;;;24.80;99.90;;;;;;5057566;28;20268;-57
2022/07/14 11:25:24;;;;;;;4.23;0.53;;;25.10;99.90;;;;;;5054897;28;20270;-58
2022/07/14 11:27:52;;;;;;;2.13;0.60;;;24.90;99.90;;;;;;5051178;28;20229;-58
2022/07/14 11:30:27;;;;;;;2.13;0.60;;;24.60;99.90;;;;;;5055482;28;20230;-57
2022/07/14 11:33:08;;;;;;;2.87;0.80;;;24.50;99.90;;;;;;5056324;28;20320;-57
2022/07/14 11:39:31;;;;;;;2.77;0.80;;;24.50;99.90;;;;;;5057037;28;20294;-58
2022/07/14 11:42:32;;;;;;;3.60;0.70;;;24.30;99.90;;;;;;5056319;28;20766;-57
2022/07/14 11:45:01;;;;;;;3.73;0.80;;;24.00;99.90;;;;;;5054523;28;20547;-57
2022/07/14 11:47:30;;;;;;;1.53;0.60;;;23.90;99.90;;;;;;5060767;28;20650;-58
2022/07/14 11:50:00;;;;;;;1.90;0.70;;;24.00;99.90;;;;;;5064135;28;20223;-58
2022/07/14 11:52:40;;;;;;;2.20;0.77;;;24.40;99.90;;;;;;5046461;28;20716;-57
2022/07/14 11:55:12;;;;;;;1.40;0.80;;;24.10;99.90;;;;;;5054753;28;20687;-57
2022/07/14 11:57:50;;;;;;;2.77;0.70;;;23.70;99.90;;;;;;5069332;28;20232;-57
2022/07/14 12:00:18;;;;;;;1.70;0.60;;;23.50;99.90;;;;;;5051843;28;20787;-56
2022/07/14 12:02:52;;;;;;;1.00;0.63;;;23.40;99.90;;;;;;5053405;28;20229;-57
2022/07/14 12:05:22;;;;;;;2.40;0.50;;;23.50;99.90;;;;;;5053923;28;20221;-56
2022/07/14 12:07:54;;;;;;;1.27;0.50;;;23.50;99.90;;;;;;5057475;28;20212;-56
2022/07/14 12:10:35;;;;;;;1.63;0.60;;;23.20;99.90;;;;;;5052682;28;20233;-56
2022/07/14 12:13:04;;;;;;;3.13;0.80;;;23.00;99.90;;;;;;5057135;28;20220;-57
2022/07/14 12:15:33;;;;;;;3.00;0.87;;;22.90;99.90;;;;;;5057382;28;20234;-56
2022/07/14 12:18:06;;;;;;;2.33;0.63;;;22.80;99.90;;;;;;5056658;28;20712;-57
2022/07/14 12:20:41;;;;;;;2.37;0.80;;;23.00;99.90;;;;;;5058233;28;20307;-56
2022/07/14 12:23:11;;;;;;;3.47;0.60;;;23.20;99.90;;;;;;5063277;28;20564;-57
2022/07/14 12:25:41;;;;;;;1.53;0.50;;;22.70;99.90;;;;;;5054114;28;20265;-56
2022/07/14 12:28:12;;;;;;;1.67;0.60;;;22.60;99.90;;;;;;5055393;28;20235;-56
2022/07/14 12:30:46;;;;;;;1.63;0.50;;;22.60;99.90;;;;;;5052590;28;20229;-58
2022/07/14 12:33:17;;;;;;;3.23;0.50;;;22.60;99.90;;;;;;5052206;28;20247;-56
2022/07/14 12:35:46;;;;;;;3.70;0.50;;;22.50;99.90;;;;;;5057178;28;20326;-56
2022/07/14 12:38:17;;;;;;;1.97;0.47;;;22.60;99.90;;;;;;5056290;28;20227;-56
2022/07/14 12:40:49;;;;;;;1.63;0.50;;;22.40;99.90;;;;;;5051330;28;20229;-56
2022/07/14 12:44:05;;;;;;;3.60;0.50;;;22.30;99.90;;;;;;5054038;28;20231;-56
2022/07/14 12:46:37;;;;;;;2.80;0.47;;;22.00;99.90;;;;;;5053251;28;20246;-56
2022/07/14 12:49:10;;;;;;;2.00;0.63;;;22.30;99.90;;;;;;5050715;28;20772;-56
2022/07/14 12:51:40;;;;;;;1.27;0.50;;;22.50;99.90;;;;;;5051635;28;20228;-57
2022/07/14 12:54:13;;;;;;;2.23;0.40;;;22.40;99.90;;;;;;5053058;28;20223;-56
2022/07/14 12:56:48;;;;;;;1.57;0.50;;;22.50;99.90;;;;;;5055082;28;20216;-56
2022/07/14 12:59:24;;;;;;;2.23;0.57;;;22.20;99.90;;;;;;5053394;28;20224;-56
2022/07/14 13:01:59;;;;;;;2.70;0.60;;;22.30;99.90;;;;;;5052142;28;20761;-56
2022/07/14 13:05:02;;;;;;;0.93;0.50;;;22.30;99.90;;;;;;5055824;28;20213;-56
2022/07/14 13:07:37;;;;;;;1.17;0.60;;;22.40;99.90;;;;;;5059542;28;20242;-56
2022/07/14 13:10:11;;;;;;;2.07;0.50;;;22.40;99.90;;;;;;5053341;28;20228;-57
2022/07/14 13:12:44;;;;;;;1.60;0.50;;;22.40;99.90;;;;;;5052244;28;20215;-56
2022/07/14 13:15:15;;;;;;;4.43;0.70;;;22.40;99.90;;;;;;5052280;28;20228;-56
2022/07/14 13:17:55;;;;;;;3.20;0.50;;;22.60;99.90;;;;;;5052427;28;20330;-56
2022/07/14 13:20:49;;;;;;;1.43;0.70;;;22.70;99.90;;;;;;5051734;28;20747;-56
2022/07/14 13:23:27;;;;;;;3.53;0.70;;;22.60;99.90;;;;;;5034353;28;20324;-57
2022/07/14 13:25:59;;;;;;;3.43;0.80;;;22.40;99.90;;;;;;5051780;28;20251;-57
2022/07/14 13:28:33;;;;;;;1.83;0.77;;;21.90;99.90;;;;;;5051481;28;20267;-56
2022/07/14 13:31:02;;;;;;;2.00;0.80;;;21.00;99.90;;;;;;5051541;28;20247;-56
2022/07/14 13:33:33;;;;;;;2.37;0.93;;;20.50;99.90;;;;;;5042342;28;20297;-56
2022/07/14 13:36:03;;;;;;;1.23;0.50;;;20.20;99.90;;;;;;5052866;28;20265;-59